Data for 09/06/2005

Time Sea-Level Adjusted Pressure Absolute Pressure Temperature Relative Humidity Dew Point   
(mb) (inHg) (mb) (inHg) (C) (F) (%) (C) (F)
00:05 1022 30.18 851 25.13 15.1 59.1 38 1.1 34
00:10 1022 30.18 852 25.16 15 59 39 1.2 34.2
00:15 1022 30.18 852 25.16 14.9 58.8 39 1.3 34.3
00:20 1022 30.18 852 25.16 14.8 58.6 40 1.4 34.6
00:25 1023 30.21 852 25.16 14.6 58.3 41 1.5 34.7
00:30 1022 30.18 852 25.16 14.5 58.1 41 1.4 34.6
00:35 1022 30.18 852 25.16 14.4 58 41 1.4 34.5
00:40 1022 30.18 852 25.16 14.3 57.7 41 1.3 34.4
00:45 1022 30.18 852 25.16 14.2 57.5 41 1.4 34.4
00:50 1022 30.18 852 25.16 14.1 57.3 42 1.3 34.3
00:55 1023 30.21 852 25.16 14.1 57.3 41 1.1 34
01:00 1023 30.21 852 25.16 14 57.1 41 1.1 33.9
01:05 1023 30.21 852 25.16 13.8 56.9 41 0.9 33.6
01:10 1022 30.18 852 25.16 13.8 56.8 41 0.9 33.5
01:15 1023 30.21 852 25.16 13.6 56.5 41 0.7 33.3
01:20 1022 30.18 852 25.16 13.6 56.4 41 0.6 33.1
01:25 1023 30.21 852 25.16 13.5 56.3 41 0.5 32.9
01:30 1023 30.21 852 25.16 13.4 56.2 41 0.4 32.8
01:35 1023 30.21 852 25.16 13.3 56 41 0.3 32.6
01:40 1023 30.21 852 25.16 13.2 55.8 41 0.3 32.5
01:45 1023 30.21 852 25.16 13.1 55.6 41 0.1 32.2
01:50 1023 30.21 852 25.16 13.1 55.5 41 0.2 32.3
01:55 1023 30.21 852 25.16 13 55.4 41 0.2 32.4
02:00 1023 30.21 852 25.16 12.9 55.2 41 0.1 32.3
02:05 1023 30.21 852 25.16 12.9 55.1 42 0.3 32.5
02:10 1023 30.21 852 25.16 12.7 54.8 42 0.2 32.4
02:15 1023 30.21 852 25.16 12.6 54.7 42 0.2 32.4
02:20 1023 30.21 852 25.16 12.5 54.6 42 0.2 32.3
02:25 1023 30.21 852 25.16 12.5 54.5 42 0.1 32.3
02:30 1023 30.21 852 25.16 12.4 54.4 43 0.3 32.5
02:35 1023 30.21 852 25.16 12.3 54.1 43 0 32
02:40 1023 30.21 852 25.16 12.3 54.2 42 -0.1 31.8
02:45 1023 30.21 852 25.16 12.3 54.2 43 0.1 32.1
02:50 1023 30.21 852 25.16 12.2 54 42 -0.1 31.8
02:55 1023 30.21 852 25.16 12.2 53.9 42 -0.2 31.7
03:00 1023 30.21 852 25.16 12.1 53.8 43 -0.2 31.7
03:05 1023 30.21 852 25.16 12.1 53.7 43 -0.1 31.9
03:10 1023 30.21 852 25.16 11.9 53.4 43 -0.1 31.8
03:15 1023 30.21 852 25.16 11.9 53.3 43 -0.2 31.7
03:20 1023 30.21 852 25.16 11.8 53.3 43 -0.2 31.6
03:25 1023 30.21 852 25.16 11.7 53.1 43 -0.2 31.6
03:30 1023 30.21 852 25.16 11.7 53.1 44 -0.2 31.7
03:35 1023 30.21 852 25.16 11.7 53.1 43 -0.4 31.3
03:40 1023 30.21 852 25.16 11.7 53.1 44 -0.2 31.7
03:45 1023 30.21 852 25.16 11.6 52.8 44 -0.2 31.6
03:50 1023 30.21 852 25.16 11.5 52.6 44 -0.2 31.7
03:55 1023 30.21 852 25.16 11.4 52.5 44 -0.3 31.4
04:00 1023 30.21 852 25.16 11.4 52.4 45 -0.2 31.6
04:05 1023 30.21 852 25.16 11.3 52.3 44 -0.4 31.3
04:10 1023 30.21 852 25.16 11.3 52.4 45 -0.3 31.5
04:15 1023 30.21 852 25.16 11.4 52.5 45 -0.2 31.6
04:20 1023 30.21 852 25.16 11.4 52.5 44 -0.2 31.6
04:25 1023 30.21 852 25.16 11.5 52.6 44 -0.2 31.7
04:30 1023 30.21 852 25.16 11.5 52.6 44 -0.2 31.7
04:35 1023 30.21 852 25.16 11.4 52.6 44 -0.2 31.7
04:40 1023 30.21 852 25.16 11.3 52.4 45 -0.1 31.8
04:45 1023 30.21 852 25.16 11.2 52.2 46 -0.1 31.9
04:50 1023 30.21 852 25.16 11.1 52 46 -0.1 31.9
04:55 1023 30.21 852 25.16 11.1 51.9 46 0 32.1
05:00 1023 30.21 852 25.16 10.9 51.7 47 0.1 32.1
05:05 1023 30.21 852 25.16 10.8 51.5 47 -0 31.9
05:10 1023 30.21 852 25.16 10.8 51.4 47 0.1 32.1
05:15 1023 30.21 852 25.16 10.7 51.2 48 0.1 32.1
05:20 1023 30.21 852 25.16 10.6 51.2 48 0 32.1
05:25 1023 30.21 852 25.16 10.6 51 48 -0 31.9
05:30 1023 30.21 852 25.16 10.5 50.9 48 -0 31.9
05:35 1023 30.21 852 25.16 10.5 50.9 48 0 32.1
05:40 1023 30.21 852 25.16 10.4 50.7 49 0.1 32.2
05:45 1023 30.21 852 25.16 10.3 50.6 49 0 32
05:50 1023 30.21 852 25.16 10.2 50.4 49 0 32.1
05:55 1023 30.21 852 25.16 10.2 50.4 49 0 32
06:00 1023 30.21 852 25.16 10.1 50.2 49 -0.2 31.7
06:05 1023 30.21 852 25.16 10.1 50.3 49 -0.2 31.7
06:10 1023 30.21 852 25.16 10.1 50.3 49 -0.1 31.9
06:15 1023 30.21 852 25.16 10.1 50.2 49 -0.1 31.8
06:20 1023 30.21 852 25.16 10.1 50.1 49 -0.1 31.8
06:25 1023 30.21 852 25.16 10 50 49 -0.2 31.6
06:30 1023 30.21 852 25.16 10 49.9 49 -0.3 31.5
06:35 1023 30.21 853 25.19 10 49.9 49 -0.3 31.5
06:40 1023 30.21 852 25.16 10 49.9 49 -0.3 31.5
06:45 1023 30.21 853 25.19 9.9 49.9 49 -0.3 31.5
06:50 1023 30.21 853 25.19 9.9 49.8 49 -0.3 31.5
06:55 1024 30.24 853 25.19 9.8 49.7 49 -0.2 31.6
07:00 1024 30.24 853 25.19 9.8 49.7 49 -0.3 31.5
07:05 1024 30.24 853 25.19 9.8 49.7 49 -0.4 31.3
07:10 1024 30.24 853 25.19 10 49.9 48 -0.4 31.3
07:15 1024 30.24 853 25.19 10.1 50.2 48 -0.3 31.5
07:20 1024 30.24 853 25.19 10.2 50.3 48 -0.3 31.5
07:25 1024 30.24 853 25.19 10.2 50.3 48 -0.4 31.3
07:30 1024 30.24 853 25.19 10.3 50.6 48 -0.3 31.5
07:35 1024 30.24 853 25.19 10.3 50.5 48 -0.1 31.8
07:40 1024 30.24 853 25.19 10.3 50.5 48 -0.2 31.7
07:45 1024 30.24 853 25.19 10.3 50.5 48 -0.2 31.6
07:50 1024 30.24 853 25.19 10.3 50.6 48 -0 31.9
07:55 1024 30.24 853 25.19 10.3 50.6 48 -0.3 31.5
08:00 1024 30.24 853 25.19 10.4 50.8 47 -0.3 31.4
08:05 1024 30.24 853 25.19 10.5 50.9 47 -0.1 31.7
08:10 1024 30.24 853 25.19 10.7 51.3 47 -0.2 31.6
08:15 1024 30.24 853 25.19 10.7 51.3 47 -0.2 31.7
08:20 1024 30.24 853 25.19 10.8 51.4 47 -0.1 31.8
08:25 1024 30.24 853 25.19 10.8 51.4 47 -0.1 31.7
08:30 1024 30.24 853 25.19 10.9 51.7 46 -0.1 31.9
08:35 1024 30.24 853 25.19 11.1 51.9 46 -0.1 31.8
08:40 1024 30.24 853 25.19 11.3 52.3 46 -0 32
08:45 1024 30.24 853 25.19 11.4 52.4 45 -0 32
08:50 1024 30.24 853 25.19 11.5 52.6 45 -0 32
08:55 1024 30.24 854 25.22 11.7 53 45 0.1 32.2
09:00 1024 30.24 853 25.19 11.7 53.1 45 0.1 32.2
09:05 1024 30.24 853 25.19 12 53.6 45 0.4 32.7
09:10 1024 30.24 853 25.19 12 53.6 44 0.3 32.6
09:15 1024 30.24 853 25.19 12.2 53.9 44 0.4 32.7
09:20 1024 30.24 853 25.19 12.4 54.3 43 0.2 32.4
09:25 1024 30.24 853 25.19 12.6 54.8 42 0.3 32.5
09:30 1024 30.24 853 25.19 12.9 55.2 42 0.5 32.9
09:35 1024 30.24 853 25.19 13 55.3 42 0.4 32.8
09:40 1024 30.24 853 25.19 13 55.3 43 0.6 33
09:45 1024 30.24 853 25.19 13.4 56.1 41 0.5 32.9
09:50 1024 30.24 853 25.19 13.4 56.1 41 0.6 33
09:55 1024 30.24 853 25.19 13.7 56.7 40 0.4 32.8
10:00 1024 30.24 853 25.19 13.9 56.9 40 0.7 33.2
10:05 1024 30.24 853 25.19 13.9 57 40 0.7 33.3
10:10 1024 30.24 853 25.19 14.1 57.4 40 0.6 33.1
10:15 1024 30.24 853 25.19 14.5 58 40 1 33.7
10:20 1024 30.24 853 25.19 14.6 58.4 40 1.2 34.2
10:25 1024 30.24 853 25.19 14.8 58.6 40 1.2 34.2
10:30 1024 30.24 853 25.19 15.2 59.3 37 0.9 33.6
10:35 1024 30.24 853 25.19 15.2 59.4 38 1.1 34
10:40 1024 30.24 853 25.19 15.3 59.6 38 1.2 34.1
10:45 1024 30.24 853 25.19 15.5 59.9 38 1.2 34.2
10:50 1024 30.24 853 25.19 15.4 59.7 38 1.2 34.2
10:55 1024 30.24 853 25.19 15.8 60.4 37 1.3 34.4
11:00 1024 30.24 853 25.19 15.8 60.4 36 0.8 33.4
11:05 1024 30.24 853 25.19 15.9 60.5 36 0.8 33.4
11:10 1024 30.24 853 25.19 16.1 60.9 36 1.2 34.1
11:15 1024 30.24 853 25.19 16.5 61.7 36 1.4 34.5
11:20 1024 30.24 853 25.19 17.3 63.2 35 1.8 35.2
11:25 1024 30.24 853 25.19 17.3 63.1 34 1.4 34.6
11:30 1024 30.24 853 25.19 17.5 63.5 33 1.1 34
11:35 1024 30.24 853 25.19 17.7 63.9 34 1.6 35
11:40 1023 30.21 853 25.19 17.5 63.5 34 1.6 34.9
11:45 1023 30.21 853 25.19 17.3 63.1 34 1.5 34.6
11:50 1023 30.21 853 25.19 17.7 63.8 34 1.5 34.8
11:55 1023 30.21 853 25.19 17.6 63.7 33 1.4 34.5
12:00 1023 30.21 853 25.19 18.5 65.2 32 1.5 34.7
12:05 1023 30.21 853 25.19 18.7 65.6 32 1.9 35.5
12:10 1023 30.21 853 25.19 18.9 66 32 1.9 35.4
12:15 1023 30.21 853 25.19 18.9 66.1 32 1.9 35.4
12:20 1023 30.21 853 25.19 19.3 66.7 30 1.7 35
12:25 1023 30.21 852 25.16 19.3 66.8 31 1.8 35.2
12:30 1023 30.21 852 25.16 19.3 66.8 31 1.7 35.1
12:35 1023 30.21 852 25.16 19.8 67.7 29 1.5 34.6
12:40 1023 30.21 852 25.16 19.9 67.7 30 2.1 35.8
12:45 1023 30.21 852 25.16 20.4 68.7 29 2.2 35.9
12:50 1023 30.21 852 25.16 21 69.7 29 2.6 36.6
12:55 1023 30.21 852 25.16 20.8 69.5 31 3.1 37.5
13:00 1023 30.21 852 25.16 20.6 69.1 29 2.2 36
13:05 1023 30.21 852 25.16 20.4 68.7 29 2.1 35.9
13:10 1023 30.21 852 25.16 21.2 70.1 28 2.3 36.2
13:15 1023 30.21 852 25.16 21.7 71 29 3.2 37.8
13:20 1023 30.21 852 25.16 21.7 71 27 2.1 35.9
13:25 1023 30.21 852 25.16 21.9 71.4 28 2.8 37
13:30 1023 30.21 852 25.16 21.8 71.2 29 3 37.3
13:35 1023 30.21 852 25.16 22.4 72.3 27 2.5 36.5
13:40 1022 30.18 852 25.16 23 73.3 26 2.5 36.5
13:45 1022 30.18 852 25.16 22.4 72.2 29 3.4 38.2
13:50 1022 30.18 852 25.16 22.3 72.1 27 2.5 36.5
13:55 1022 30.18 852 25.16 22.7 72.9 26 2.7 36.9
14:00 1022 30.18 852 25.16 21.9 71.4 28 2.9 37.2
14:05 1022 30.18 852 25.16 23 73.4 26 2.7 36.8
14:10 1022 30.18 852 25.16 23.3 73.9 26 2.9 37.2
14:15 1022 30.18 851 25.13 22.8 73 26 2.5 36.6
14:20 1022 30.18 851 25.13 22.8 73.1 26 2.6 36.6
14:25 1022 30.18 851 25.13 23 73.4 27 3.3 38
14:30 1022 30.18 851 25.13 23.4 74.2 26 2.8 37.1
14:35 1022 30.18 851 25.13 24 75.2 25 3.2 37.8
14:40 1022 30.18 851 25.13 24 75.1 24 2.5 36.6
14:45 1022 30.18 851 25.13 23.6 74.6 25 2.9 37.2
14:50 1022 30.18 851 25.13 24.1 75.4 24 2.3 36.1
14:55 1022 30.18 851 25.13 24.6 76.2 23 2.3 36.1
15:00 1022 30.18 851 25.13 24.2 75.5 24 2.5 36.5
15:05 1022 30.18 851 25.13 23.9 75 24 2.4 36.3
15:10 1022 30.18 851 25.13 24.8 76.6 23 2.4 36.3
15:15 1022 30.18 851 25.13 24.7 76.5 23 2.2 35.9
15:20 1022 30.18 851 25.13 24.4 76 23 2.5 36.5
15:25 1022 30.18 851 25.13 25.1 77.1 23 2.7 36.8
15:30 1022 30.18 851 25.13 24.7 76.5 23 2.5 36.4
15:35 1022 30.18 851 25.13 24 75.2 24 2.5 36.5
15:40 1022 30.18 851 25.13 25.1 77.1 22 2.2 35.9
15:45 1022 30.18 851 25.13 25.5 77.8 22 2.4 36.4
15:50 1021 30.15 851 25.13 25.7 78.3 21 2.1 35.8
15:55 1021 30.15 851 25.13 25.7 78.3 21 1.8 35.2
16:00 1021 30.15 851 25.13 25 77.1 20 1.1 34
16:05 1021 30.15 851 25.13 24.5 76.1 25 3.5 38.2
16:10 1021 30.15 851 25.13 24 75.2 22 1.1 33.9
16:15 1021 30.15 851 25.13 25 77 21 1.1 34
16:20 1021 30.15 851 25.13 25.8 78.4 20 1.5 34.7
16:25 1021 30.15 851 25.13 26 78.8 20 1.2 34.2
16:30 1021 30.15 851 25.13 26 78.8 18 0.5 32.8
16:35 1021 30.15 851 25.13 25.4 77.6 19 -0 32
16:40 1021 30.15 850 25.1 25.2 77.4 20 0.7 33.2
16:45 1021 30.15 850 25.1 25.1 77.1 19 -0 32
16:50 1021 30.15 850 25.1 25.6 78.2 19 0.3 32.6
16:55 1021 30.15 850 25.1 25.7 78.2 18 0.2 32.4
17:00 1021 30.15 850 25.1 26.1 78.9 18 -0.1 31.9
17:05 1021 30.15 850 25.1 26.1 79 18 0.1 32.2
17:10 1021 30.15 850 25.1 26 78.8 19 0.7 33.2
17:15 1021 30.15 850 25.1 25.7 78.2 18 0.1 32.2
17:20 1021 30.15 850 25.1 25.8 78.5 19 0.4 32.7
17:25 1021 30.15 850 25.1 25.8 78.5 18 0.3 32.5
17:30 1021 30.15 850 25.1 24.9 76.8 20 0.5 32.9
17:35 1021 30.15 850 25.1 24.7 76.5 23 2.2 36
17:40 1021 30.15 850 25.1 24 75.1 24 2.2 36
17:45 1021 30.15 850 25.1 23.4 74 24 2.1 35.7
17:50 1021 30.15 850 25.1 23.3 74 24 1.9 35.5
17:55 1021 30.15 850 25.1 23.1 73.5 25 2 35.5
18:00 1021 30.15 850 25.1 23 73.3 25 2.1 35.7
18:05 1021 30.15 850 25.1 22.9 73.1 25 2 35.5
18:10 1021 30.15 850 25.1 22.7 72.8 25 1.9 35.4
18:15 1021 30.15 850 25.1 22.5 72.6 25 2 35.5
18:20 1021 30.15 850 25.1 22.2 72 26 1.9 35.5
18:25 1021 30.15 850 25.1 22 71.5 26 1.6 34.8
18:30 1021 30.15 851 25.13 21.7 71.1 26 1.6 34.9
18:35 1021 30.15 851 25.13 21.5 70.8 26 1.6 34.9
18:40 1021 30.15 851 25.13 21.5 70.7 26 1.5 34.7
18:45 1021 30.15 851 25.13 21.4 70.4 26 1.3 34.3
18:50 1021 30.15 850 25.1 21.3 70.3 26 1.4 34.4
18:55 1021 30.15 851 25.13 21.1 70 27 1.3 34.4
19:00 1021 30.15 851 25.13 21 69.7 27 1.2 34.2
19:05 1021 30.15 851 25.13 20.8 69.4 27 1.3 34.3
19:10 1021 30.15 851 25.13 20.7 69.2 27 1.1 34
19:15 1021 30.15 851 25.13 20.6 69 27 1.2 34.2
19:20 1021 30.15 851 25.13 20.4 68.7 28 1.4 34.5
19:25 1022 30.18 851 25.13 20.2 68.4 28 1.2 34.2
19:30 1022 30.18 851 25.13 20.1 68.1 28 1.3 34.4
19:35 1022 30.18 851 25.13 20 68 28 1.1 33.9
19:40 1022 30.18 851 25.13 19.9 67.8 28 1.2 34.2
19:45 1022 30.18 851 25.13 19.8 67.6 29 1.2 34.2
19:50 1022 30.18 851 25.13 19.6 67.2 29 1.3 34.3
19:55 1022 30.18 851 25.13 19.4 66.9 29 1.2 34.2
20:00 1022 30.18 851 25.13 19.3 66.7 30 1.4 34.5
20:05 1022 30.18 851 25.13 19 66.3 30 1.2 34.2
20:10 1022 30.18 851 25.13 19 66.2 30 1.1 34
20:15 1022 30.18 851 25.13 18.9 66 30 1.2 34.2
20:20 1022 30.18 851 25.13 18.7 65.6 31 1.2 34.2
20:25 1022 30.18 851 25.13 18.6 65.4 31 1.2 34.1
20:30 1022 30.18 851 25.13 18.6 65.6 30 1.1 33.9
20:35 1022 30.18 851 25.13 18.8 65.8 30 1.1 33.9
20:40 1022 30.18 851 25.13 18.8 65.9 30 1.1 34
20:45 1022 30.18 851 25.13 18.7 65.7 30 1 33.9
20:50 1022 30.18 851 25.13 18.6 65.6 30 1 33.8
20:55 1022 30.18 851 25.13 18.6 65.6 31 1.1 34
21:00 1022 30.18 851 25.13 18.6 65.6 30 1.1 33.9
21:05 1022 30.18 851 25.13 18.6 65.5 30 1 33.8
21:10 1022 30.18 851 25.13 18.7 65.6 30 1.1 33.9
21:15 1022 30.18 851 25.13 18.6 65.5 30 1 33.9
21:20 1022 30.18 851 25.13 18.6 65.4 30 1 33.7
21:25 1022 30.18 851 25.13 18.6 65.5 31 1.1 34
21:30 1022 30.18 851 25.13 18.5 65.3 31 1 33.8
21:35 1022 30.18 851 25.13 18.4 65.2 31 1 33.7
21:40 1022 30.18 851 25.13 18.4 65.1 31 1 33.8
21:45 1022 30.18 851 25.13 18.3 65 31 0.9 33.7
21:50 1022 30.18 851 25.13 18.2 64.8 31 1 33.8
21:55 1022 30.18 851 25.13 18.2 64.8 31 0.9 33.7
22:00 1022 30.18 851 25.13 18.2 64.8 31 0.9 33.7
22:05 1022 30.18 851 25.13 18.3 64.9 31 0.8 33.5
22:10 1022 30.18 851 25.13 18.2 64.7 31 0.8 33.5
22:15 1022 30.18 851 25.13 18.2 64.7 31 0.9 33.7
22:20 1022 30.18 851 25.13 18.1 64.6 31 0.9 33.7
22:25 1022 30.18 851 25.13 18 64.4 31 0.9 33.6
22:30 1022 30.18 851 25.13 18 64.3 32 1 33.8
22:35 1022 30.18 852 25.16 18 64.3 32 1 33.7
22:40 1022 30.18 852 25.16 17.9 64.3 32 1.1 33.9
22:45 1022 30.18 852 25.16 17.9 64.3 32 1.1 34.1
22:50 1022 30.18 852 25.16 18 64.3 32 1.2 34.2
22:55 1022 30.18 852 25.16 17.9 64.1 32 1.2 34.2
23:00 1022 30.18 852 25.16 17.8 64.1 33 1.3 34.3
23:05 1022 30.18 852 25.16 17.7 63.8 33 1.3 34.4
23:10 1022 30.18 852 25.16 17.5 63.6 33 1.4 34.4
23:15 1022 30.18 852 25.16 17.5 63.5 33 1.3 34.3
23:20 1022 30.18 852 25.16 17.4 63.4 34 1.4 34.5
23:25 1022 30.18 851 25.13 17.4 63.2 34 1.3 34.3
23:30 1022 30.18 852 25.16 17.3 63.2 34 1.4 34.6
23:35 1022 30.18 851 25.13 17.2 62.9 34 1.4 34.4
23:40 1022 30.18 851 25.13 17.2 62.9 34 1.4 34.5
23:45 1022 30.18 851 25.13 17.1 62.8 34 1.3 34.3
23:50 1022 30.18 851 25.13 17.1 62.8 35 1.5 34.7
23:55 1022 30.18 851 25.13 17.1 62.7 35 1.4 34.5
24:00 1022 30.18 851 25.13 17 62.6 35 1.5 34.7